createdAt,value
2019-05-14T06:23:42.239Z,20.39
2019-05-14T06:24:19.515Z,19.85
2019-05-14T06:24:58.603Z,19.85
2019-05-14T06:25:34.916Z,19.76
2019-05-14T06:26:11.955Z,19.62
2019-05-14T06:26:48.958Z,19.56
2019-05-14T06:27:28.550Z,19.43
2019-05-14T06:28:04.991Z,19.23
2019-05-14T06:28:44.289Z,19.15
2019-05-14T06:29:20.451Z,19.05
2019-05-14T06:29:59.433Z,18.96
2019-05-14T06:30:41.587Z,18.96
2019-05-14T06:31:19.466Z,18.83
2019-05-14T06:31:58.985Z,19.00
2019-05-14T06:32:38.728Z,19.15
2019-05-14T06:33:15.978Z,19.26
2019-05-14T06:33:59.132Z,19.26
2019-05-14T06:34:38.225Z,19.41
2019-05-14T06:35:15.007Z,19.67
2019-05-14T06:35:52.163Z,19.67
2019-05-14T06:36:32.612Z,19.66
2019-05-14T06:37:09.367Z,19.60
2019-05-14T06:37:48.998Z,19.60
2019-05-14T06:38:32.285Z,19.64
2019-05-14T06:39:12.497Z,19.64
2019-05-14T06:39:48.682Z,19.63
2019-05-14T06:40:25.270Z,19.44
2019-05-14T06:41:04.672Z,19.00
2019-05-14T06:41:42.936Z,19.00
2019-05-14T06:42:22.742Z,18.74
2019-05-14T06:43:02.956Z,18.62
2019-05-14T06:43:41.823Z,18.55
2019-05-14T06:44:19.441Z,18.39
2019-05-14T06:44:55.282Z,18.11
2019-05-14T06:45:34.436Z,18.04
2019-05-14T06:46:12.488Z,17.92
2019-05-14T06:46:52.772Z,17.88
2019-05-14T06:47:30.746Z,17.88
2019-05-14T06:48:08.669Z,17.83
2019-05-14T06:48:48.667Z,17.89
2019-05-14T06:49:28.991Z,17.95
2019-05-14T06:50:08.762Z,17.98
2019-05-14T06:50:46.652Z,17.89
2019-05-14T06:51:28.855Z,17.97
2019-05-14T06:52:08.458Z,17.97
2019-05-14T06:52:49.511Z,18.01
2019-05-14T06:53:29.971Z,17.99
2019-05-14T06:54:09.379Z,18.08
2019-05-14T06:54:49.373Z,18.32
2019-05-14T16:03:18.906Z,24.48
2019-05-14T16:03:58.843Z,24.45
2019-05-14T16:04:38.831Z,24.53
2019-05-14T16:05:18.775Z,24.66
2019-05-14T16:05:59.677Z,24.82
2019-05-14T16:06:38.634Z,24.98
2019-05-14T16:07:18.460Z,25.16
2019-05-14T16:07:54.361Z,25.34
2019-05-14T16:08:31.127Z,25.51
2019-05-14T16:09:08.356Z,25.58
2019-05-14T16:09:49.149Z,25.52
2019-05-14T16:10:25.376Z,25.29
2019-05-14T16:11:05.444Z,25.12
2019-05-14T16:11:42.560Z,24.98
2019-05-14T16:12:19.963Z,24.60
2019-05-14T16:12:59.546Z,24.60
2019-05-14T16:13:35.941Z,24.41
2019-05-14T16:14:13.509Z,24.19
2019-05-14T16:14:50.562Z,23.98
2019-05-14T16:15:28.777Z,23.76
2019-05-14T16:16:10.244Z,23.66
2019-05-14T16:16:48.702Z,23.78
2019-05-14T16:17:26.848Z,23.70
2019-05-14T16:18:09.391Z,23.61
2019-05-14T16:18:42.281Z,23.47
2019-05-14T16:19:19.373Z,23.36
2019-05-14T16:19:56.285Z,23.23
2019-05-14T16:20:34.030Z,23.09
2019-05-14T16:21:13.469Z,22.86
2019-05-14T16:21:50.901Z,22.86
2019-05-14T16:22:29.417Z,22.70
2019-05-14T16:23:10.587Z,22.50
2019-05-14T16:23:45.523Z,22.50
2019-05-14T16:24:22.616Z,22.35
2019-05-14T16:25:00.969Z,22.08
2019-05-14T16:25:38.114Z,21.92
2019-05-14T16:26:18.545Z,21.73
2019-05-14T16:26:55.393Z,21.60
2019-05-14T16:27:34.386Z,21.46
2019-05-14T16:28:12.804Z,21.38
2019-05-14T16:28:49.594Z,21.29
2019-05-14T16:29:40.295Z,21.05
2019-05-14T16:30:04.387Z,21.05
2019-05-14T16:30:41.234Z,21.01
2019-05-14T16:31:18.415Z,20.93
2019-05-14T16:31:58.231Z,20.88
2019-05-14T16:32:39.269Z,20.73
2019-05-14T16:33:18.369Z,20.73
2019-05-14T16:33:53.413Z,20.50
2019-05-14T16:34:30.691Z,20.34
2019-05-14T16:35:08.891Z,20.28
2019-05-14T16:35:48.538Z,20.28
2019-05-14T16:36:28.909Z,20.23
2019-05-14T16:37:11.081Z,20.12
2019-05-14T16:37:45.307Z,20.07
2019-05-14T16:38:23.325Z,19.98
2019-05-14T16:39:00.316Z,20.07
2019-05-14T16:39:39.933Z,20.22
2019-05-14T16:40:15.678Z,20.24
2019-05-14T16:40:52.991Z,20.15
2019-05-14T16:41:30.733Z,20.24
2019-05-14T16:42:08.151Z,20.35
2019-05-14T16:42:45.103Z,20.57
